Time;durP1;ratioP1;P1;durP2;ratioP2;P2;SDS_P1;SDS_P2;PMS_P1;PMS_P2;Temp;Humidity;BMP_temperature;BMP_pressure;BME280_temperature;BME280_humidity;BME280_pressure;Samples;Min_cycle;Max_cycle;Signal;HPM_P1;HPM_P2
2021/10/16 00:02:07;;;;;;;10.10;6.55;;;8.40;99.90;;;;;;4776592;30;20051;-83
2021/10/16 00:04:35;;;;;;;11.45;5.90;;;8.40;99.90;;;;;;4771453;30;20054;-82
2021/10/16 00:07:02;;;;;;;8.77;6.28;;;8.50;99.90;;;;;;4786624;30;20051;-82
2021/10/16 00:09:30;;;;;;;5.00;4.22;;;8.40;99.90;;;;;;4786933;30;20058;-84
2021/10/16 00:11:58;;;;;;;5.63;4.85;;;8.40;99.90;;;;;;4786531;30;20059;-84
2021/10/16 00:14:26;;;;;;;8.90;5.22;;;8.40;99.90;;;;;;4767042;30;20063;-84
2021/10/16 00:16:53;;;;;;;7.15;4.57;;;8.30;99.90;;;;;;4753033;30;20071;-84
2021/10/16 00:19:21;;;;;;;7.53;6.47;;;8.30;99.90;;;;;;4753555;30;20487;-84
2021/10/16 00:21:49;;;;;;;7.70;5.65;;;8.40;99.90;;;;;;4766520;30;20646;-84
2021/10/16 00:24:16;;;;;;;7.55;5.13;;;8.30;99.90;;;;;;4770963;30;20080;-84
2021/10/16 00:26:44;;;;;;;6.68;5.22;;;8.30;99.90;;;;;;4770866;30;20043;-84
2021/10/16 00:29:12;;;;;;;5.80;4.53;;;8.30;99.90;;;;;;4769925;30;20059;-84
2021/10/16 00:32:18;;;;;;;7.05;5.15;;;8.20;99.90;;;;;;4787219;30;20055;-87
2021/10/16 00:35:01;;;;;;;13.07;8.15;;;8.20;99.90;;;;;;4756687;30;20417;-91
2021/10/16 00:38:30;;;;;;;5.82;4.47;;;8.10;99.90;;;;;;4743354;30;20055;-91
2021/10/16 00:45:07;;;;;;;5.47;4.78;;;7.90;99.90;;;;;;4739636;30;20048;-88
2021/10/16 00:47:57;;;;;;;8.50;5.93;;;7.90;99.90;;;;;;4740374;30;20422;-90
2021/10/16 00:51:13;;;;;;;4.82;4.43;;;7.90;99.90;;;;;;4729393;30;20056;-91
2021/10/16 00:54:11;;;;;;;5.20;4.70;;;7.80;99.90;;;;;;4730328;30;20063;-90
2021/10/16 00:57:07;;;;;;;9.20;4.97;;;7.80;99.90;;;;;;4757910;30;20067;-91
2021/10/16 01:00:23;;;;;;;10.90;5.70;;;7.80;99.90;;;;;;4775276;30;20070;-91
2021/10/16 01:03:22;;;;;;;6.28;5.68;;;7.70;99.90;;;;;;4747310;30;20123;-90
2021/10/16 01:06:32;;;;;;;5.65;3.97;;;7.80;99.90;;;;;;4758338;30;20051;-88
2021/10/16 01:09:17;;;;;;;5.13;4.60;;;7.80;99.90;;;;;;4746972;30;20405;-90
2021/10/16 01:12:35;;;;;;;5.55;4.18;;;7.70;99.90;;;;;;4758437;30;20070;-90
2021/10/16 01:15:17;;;;;;;12.50;6.47;;;7.70;99.90;;;;;;4726445;30;20047;-88
2021/10/16 01:18:42;;;;;;;10.98;5.93;;;7.70;99.90;;;;;;4737963;30;20059;-88
2021/10/16 01:21:38;;;;;;;7.88;4.88;;;7.80;99.90;;;;;;4697669;30;20394;-88
2021/10/16 01:24:23;;;;;;;6.85;5.57;;;7.80;99.90;;;;;;4742314;30;20093;-89
2021/10/16 01:27:26;;;;;;;7.68;5.47;;;7.80;99.90;;;;;;4732875;30;20056;-89
2021/10/16 01:30:19;;;;;;;7.72;5.93;;;7.80;99.90;;;;;;4745676;30;20883;-89
2021/10/16 01:32:56;;;;;;;5.97;4.68;;;7.80;99.90;;;;;;4730807;30;20059;-89
2021/10/16 01:35:27;;;;;;;8.15;4.43;;;7.70;99.90;;;;;;4746678;30;20064;-88
2021/10/16 01:38:04;;;;;;;5.10;4.68;;;7.80;99.90;;;;;;4717810;30;20058;-87
2021/10/16 01:40:45;;;;;;;6.23;5.53;;;7.80;99.90;;;;;;4710482;30;20070;-88
2021/10/16 01:43:17;;;;;;;4.45;3.97;;;7.80;99.90;;;;;;4728336;30;20437;-87
2021/10/16 01:45:54;;;;;;;5.75;4.70;;;7.70;99.90;;;;;;4721398;30;20047;-88
2021/10/16 01:48:27;;;;;;;6.93;4.10;;;7.60;99.90;;;;;;4736751;30;20056;-87
2021/10/16 01:50:59;;;;;;;6.93;4.75;;;7.60;99.90;;;;;;4730897;30;20044;-88
2021/10/16 01:53:32;;;;;;;6.18;4.35;;;7.60;99.90;;;;;;4725456;30;20055;-88
2021/10/16 01:56:10;;;;;;;6.90;5.80;;;7.50;99.90;;;;;;4747073;30;20048;-88
2021/10/16 01:58:44;;;;;;;6.35;4.85;;;7.60;99.90;;;;;;4716129;30;20725;-88
2021/10/16 02:01:32;;;;;;;5.97;5.38;;;7.60;99.90;;;;;;4712913;30;20044;-87
2021/10/16 02:04:32;;;;;;;8.07;5.20;;;7.50;99.90;;;;;;4749988;30;20051;-87
2021/10/16 02:07:08;;;;;;;9.55;5.50;;;7.50;99.90;;;;;;4749135;30;20051;-89
2021/10/16 02:09:39;;;;;;;8.07;4.72;;;7.50;99.90;;;;;;4756963;30;20059;-87
2021/10/16 02:12:09;;;;;;;8.20;5.50;;;7.50;99.90;;;;;;4763675;30;20052;-87
2021/10/16 02:14:47;;;;;;;8.68;6.07;;;7.50;99.90;;;;;;4747548;30;20060;-88
2021/10/16 02:17:19;;;;;;;7.38;4.65;;;7.50;99.90;;;;;;4749459;30;20055;-86
2021/10/16 02:19:48;;;;;;;8.13;6.05;;;7.60;99.90;;;;;;4735018;30;20491;-88
2021/10/16 02:22:38;;;;;;;8.63;6.05;;;7.60;99.90;;;;;;4762757;30;20051;-87
2021/10/16 02:25:07;;;;;;;10.75;5.22;;;7.60;99.90;;;;;;4748970;30;20052;-88
2021/10/16 02:27:42;;;;;;;6.75;5.60;;;7.60;99.90;;;;;;4762616;30;20393;-87
2021/10/16 02:30:22;;;;;;;8.77;6.45;;;7.70;99.90;;;;;;4763446;30;20044;-86
2021/10/16 02:32:57;;;;;;;11.07;5.75;;;7.60;99.90;;;;;;4756898;29;20052;-88
2021/10/16 02:35:40;;;;;;;9.57;6.40;;;7.60;99.90;;;;;;4765047;30;20048;-88
2021/10/16 02:38:34;;;;;;;6.05;5.30;;;7.60;99.90;;;;;;4763860;30;20069;-88
2021/10/16 02:41:07;;;;;;;6.45;5.15;;;7.60;99.90;;;;;;4751905;30;20063;-87
2021/10/16 02:43:40;;;;;;;9.02;4.97;;;7.60;99.90;;;;;;4765736;30;20052;-85
2021/10/16 02:46:10;;;;;;;6.13;5.43;;;7.60;99.90;;;;;;4752556;30;20426;-89
2021/10/16 02:48:45;;;;;;;7.60;5.97;;;7.60;99.90;;;;;;4763222;30;20056;-86
2021/10/16 02:51:24;;;;;;;8.05;6.07;;;7.60;99.90;;;;;;4735029;30;20052;-88
2021/10/16 02:54:08;;;;;;;7.30;5.32;;;7.50;99.90;;;;;;4753505;30;20040;-87
2021/10/16 02:56:41;;;;;;;7.30;5.63;;;7.60;99.90;;;;;;4765507;29;20051;-88
2021/10/16 02:59:34;;;;;;;7.55;5.55;;;7.60;99.90;;;;;;4751501;30;20051;-87
2021/10/16 03:02:22;;;;;;;5.05;4.40;;;7.50;99.90;;;;;;4752868;30;20054;-88
2021/10/16 03:05:17;;;;;;;10.02;6.63;;;7.50;99.90;;;;;;4757737;30;20052;-87
2021/10/16 03:07:48;;;;;;;8.13;6.15;;;7.50;99.90;;;;;;4736242;30;20052;-84
2021/10/16 03:10:16;;;;;;;7.03;6.05;;;7.40;99.90;;;;;;4756687;30;20053;-84
2021/10/16 03:12:44;;;;;;;6.68;5.07;;;7.40;99.90;;;;;;4735779;30;20423;-84
2021/10/16 03:15:14;;;;;;;8.50;6.00;;;7.40;99.90;;;;;;4738722;30;20059;-84
2021/10/16 03:17:41;;;;;;;8.73;5.55;;;7.30;99.90;;;;;;4738080;30;20070;-84
2021/10/16 03:20:11;;;;;;;10.20;7.82;;;7.30;99.90;;;;;;4753475;30;20565;-84
2021/10/16 03:22:39;;;;;;;7.70;6.20;;;7.30;99.90;;;;;;4752068;30;20051;-84
2021/10/16 03:25:07;;;;;;;8.77;7.05;;;7.30;99.90;;;;;;4751832;30;20050;-84
2021/10/16 03:27:34;;;;;;;8.68;7.00;;;7.30;99.90;;;;;;4752733;30;20517;-84
2021/10/16 03:30:03;;;;;;;11.63;6.47;;;7.30;99.90;;;;;;4752594;30;20048;-84
2021/10/16 03:32:31;;;;;;;8.20;6.18;;;7.30;99.90;;;;;;4767837;30;20059;-84
2021/10/16 03:34:58;;;;;;;8.23;5.57;;;7.30;99.90;;;;;;4766987;30;20059;-84
2021/10/16 03:37:26;;;;;;;12.32;7.07;;;7.30;99.90;;;;;;4737284;30;20067;-84
2021/10/16 03:39:54;;;;;;;8.05;6.97;;;7.20;99.90;;;;;;4767210;30;20063;-84
2021/10/16 03:42:22;;;;;;;15.45;7.35;;;7.30;99.90;;;;;;4752254;30;20576;-84
2021/10/16 03:45:01;;;;;;;9.45;7.90;;;7.30;99.90;;;;;;4744222;30;20045;-84
2021/10/16 03:47:28;;;;;;;11.57;6.93;;;7.30;99.90;;;;;;4751182;30;20044;-84
2021/10/16 03:49:56;;;;;;;12.85;7.20;;;7.30;99.90;;;;;;4749793;30;20056;-85
2021/10/16 03:52:24;;;;;;;13.75;8.35;;;7.30;99.90;;;;;;4752092;30;20663;-84
2021/10/16 03:54:52;;;;;;;13.38;7.85;;;7.30;99.90;;;;;;4766266;30;20059;-84
2021/10/16 03:57:20;;;;;;;17.17;9.73;;;7.30;99.90;;;;;;4753197;30;20091;-84
2021/10/16 03:59:48;;;;;;;11.27;6.85;;;7.20;99.90;;;;;;4768346;30;20055;-84
2021/10/16 04:02:18;;;;;;;11.65;8.80;;;7.30;99.90;;;;;;4769411;30;20048;-84
2021/10/16 04:04:46;;;;;;;10.52;8.80;;;7.30;99.90;;;;;;4767919;30;20051;-84
2021/10/16 04:07:14;;;;;;;13.25;8.00;;;7.20;99.90;;;;;;4754016;30;20055;-83
2021/10/16 04:09:47;;;;;;;11.38;8.57;;;7.30;99.90;;;;;;4753165;30;20047;-84
2021/10/16 04:12:16;;;;;;;12.32;7.82;;;7.30;99.90;;;;;;4768249;30;20060;-84
2021/10/16 04:14:45;;;;;;;10.75;9.40;;;7.30;99.90;;;;;;4764209;30;20230;-84
2021/10/16 04:17:15;;;;;;;12.60;9.50;;;7.40;99.90;;;;;;4735322;30;20064;-84
2021/10/16 04:19:43;;;;;;;13.82;7.93;;;7.40;99.90;;;;;;4736160;30;20059;-84
2021/10/16 04:22:11;;;;;;;12.65;8.38;;;7.40;99.90;;;;;;4735329;30;20056;-84
2021/10/16 04:24:38;;;;;;;12.20;8.95;;;7.40;99.90;;;;;;4750586;30;20102;-84
2021/10/16 04:27:07;;;;;;;10.40;8.68;;;7.40;99.90;;;;;;4768143;30;20506;-84
2021/10/16 04:29:39;;;;;;;12.35;8.20;;;7.50;99.90;;;;;;4752813;30;20055;-84
2021/10/16 04:32:09;;;;;;;9.57;7.57;;;7.40;99.90;;;;;;4753354;30;20618;-84
2021/10/16 04:34:37;;;;;;;12.45;7.88;;;7.40;99.90;;;;;;4767259;30;20402;-84
2021/10/16 04:37:05;;;;;;;13.27;8.63;;;7.40;99.90;;;;;;4752608;30;20059;-84
2021/10/16 04:39:33;;;;;;;18.00;9.45;;;7.40;99.90;;;;;;4767976;30;20063;-84
2021/10/16 04:42:01;;;;;;;12.20;7.50;;;7.40;99.90;;;;;;4766793;30;20059;-84
2021/10/16 04:44:29;;;;;;;14.00;8.98;;;7.40;99.90;;;;;;4752119;30;20056;-84
2021/10/16 04:46:57;;;;;;;8.95;6.68;;;7.40;99.90;;;;;;4766980;30;20059;-84
2021/10/16 04:49:25;;;;;;;13.48;9.32;;;7.30;99.90;;;;;;4764513;30;20048;-84
2021/10/16 04:51:53;;;;;;;12.18;8.07;;;7.20;99.90;;;;;;4764546;30;20528;-84
2021/10/16 04:54:22;;;;;;;11.18;8.15;;;7.20;99.90;;;;;;4749787;30;20402;-83
2021/10/16 04:56:50;;;;;;;10.23;7.35;;;7.10;99.90;;;;;;4749911;30;20079;-84
2021/10/16 04:59:21;;;;;;;10.55;7.78;;;7.20;99.90;;;;;;4749622;30;20407;-84
2021/10/16 05:01:48;;;;;;;13.00;9.15;;;7.10;99.90;;;;;;4749193;30;20063;-84
2021/10/16 05:04:16;;;;;;;11.57;8.30;;;7.20;99.90;;;;;;4750748;30;20044;-84
2021/10/16 05:06:45;;;;;;;15.32;8.25;;;7.10;99.90;;;;;;4735016;30;20048;-82
2021/10/16 05:09:12;;;;;;;10.77;8.05;;;7.20;99.90;;;;;;4734639;30;20052;-82
2021/10/16 05:11:40;;;;;;;11.07;6.80;;;7.20;99.90;;;;;;4749476;30;20044;-83
2021/10/16 05:14:09;;;;;;;11.38;7.85;;;7.10;99.90;;;;;;4748137;30;20052;-83
2021/10/16 05:16:36;;;;;;;10.25;7.78;;;7.00;99.90;;;;;;4749211;30;20067;-83
2021/10/16 05:19:04;;;;;;;12.27;8.18;;;7.10;99.90;;;;;;4749642;30;20056;-83
2021/10/16 05:21:34;;;;;;;8.73;6.68;;;7.20;99.90;;;;;;4734079;30;20059;-83
2021/10/16 05:24:03;;;;;;;11.30;7.68;;;7.10;99.90;;;;;;4763658;30;20070;-83
2021/10/16 05:26:31;;;;;;;7.82;6.80;;;7.00;99.90;;;;;;4749024;30;20052;-83
2021/10/16 05:29:03;;;;;;;10.43;7.87;;;7.00;99.90;;;;;;4748110;30;20040;-83
2021/10/16 05:31:32;;;;;;;9.48;7.38;;;7.00;99.90;;;;;;4734850;30;20318;-83
2021/10/16 05:33:59;;;;;;;13.05;7.43;;;6.90;99.90;;;;;;4748590;30;20059;-83
2021/10/16 05:36:27;;;;;;;13.90;9.00;;;6.90;99.90;;;;;;4734826;30;20055;-83
2021/10/16 05:38:55;;;;;;;12.65;9.57;;;6.90;99.90;;;;;;4748564;30;20410;-83
2021/10/16 05:41:23;;;;;;;14.82;11.02;;;7.00;99.90;;;;;;4748764;30;20063;-84
2021/10/16 05:43:51;;;;;;;19.77;10.27;;;7.00;99.90;;;;;;4763009;30;20048;-83
2021/10/16 05:46:19;;;;;;;12.73;9.40;;;7.00;99.90;;;;;;4748997;30;20051;-83
2021/10/16 05:48:50;;;;;;;13.73;9.85;;;7.00;99.90;;;;;;4763405;30;20055;-83
2021/10/16 05:51:19;;;;;;;12.95;9.80;;;7.00;99.90;;;;;;4748961;30;20505;-83
2021/10/16 05:53:46;;;;;;;12.70;9.60;;;7.00;99.90;;;;;;4733520;30;20049;-83
2021/10/16 05:56:15;;;;;;;11.18;9.15;;;7.00;99.90;;;;;;4735141;30;20060;-83
2021/10/16 05:58:42;;;;;;;13.73;9.13;;;7.00;99.90;;;;;;4764432;30;20060;-83
2021/10/16 06:01:10;;;;;;;12.48;9.18;;;7.00;99.90;;;;;;4766936;30;20059;-83
2021/10/16 06:03:45;;;;;;;11.75;7.07;;;6.90;99.90;;;;;;4766689;30;20059;-83
2021/10/16 06:06:13;;;;;;;13.13;8.02;;;6.90;99.90;;;;;;4737498;30;20054;-83
2021/10/16 06:08:41;;;;;;;12.18;9.70;;;6.90;99.90;;;;;;4751305;30;20521;-83
2021/10/16 06:11:09;;;;;;;11.35;8.65;;;6.80;99.90;;;;;;4749225;30;20064;-83
2021/10/16 06:13:37;;;;;;;15.93;10.98;;;6.90;99.90;;;;;;4733880;30;20044;-83
2021/10/16 06:16:05;;;;;;;13.90;11.43;;;7.00;99.90;;;;;;4738104;30;20402;-81
2021/10/16 06:18:33;;;;;;;15.15;11.32;;;7.00;99.90;;;;;;4737461;30;20045;-83
2021/10/16 06:21:03;;;;;;;17.75;10.25;;;7.10;99.90;;;;;;4766666;30;20059;-83
2021/10/16 06:23:33;;;;;;;12.35;7.95;;;7.10;99.90;;;;;;4755705;30;20060;-83
2021/10/16 06:26:00;;;;;;;12.07;8.93;;;7.10;99.90;;;;;;4754681;30;20103;-83
2021/10/16 06:28:30;;;;;;;13.35;9.52;;;7.20;99.90;;;;;;4769484;30;20067;-83
2021/10/16 06:30:57;;;;;;;13.95;9.18;;;7.30;99.90;;;;;;4769135;30;20056;-83
2021/10/16 06:33:25;;;;;;;13.13;10.55;;;7.30;99.90;;;;;;4769385;30;20048;-83
2021/10/16 06:35:53;;;;;;;12.88;10.27;;;7.40;99.90;;;;;;4752195;30;20063;-83
2021/10/16 06:38:32;;;;;;;16.55;12.18;;;7.40;99.90;;;;;;4751678;30;20082;-83
2021/10/16 06:41:02;;;;;;;13.80;10.13;;;7.50;99.90;;;;;;4761070;30;20070;-83
2021/10/16 06:43:53;;;;;;;15.35;10.48;;;7.40;99.90;;;;;;4760783;30;20060;-84
2021/10/16 06:46:41;;;;;;;12.48;8.50;;;7.40;99.90;;;;;;4767760;30;20063;-83
2021/10/16 06:49:22;;;;;;;11.48;8.32;;;7.40;99.90;;;;;;4760094;30;20056;-83
2021/10/16 06:51:50;;;;;;;14.82;9.38;;;7.60;99.90;;;;;;4769369;30;20044;-84
2021/10/16 06:54:18;;;;;;;12.90;9.18;;;7.70;99.90;;;;;;4754168;30;20051;-83
2021/10/16 06:56:47;;;;;;;24.73;10.45;;;7.80;99.90;;;;;;4751664;30;20070;-83
2021/10/16 06:59:17;;;;;;;13.73;11.02;;;7.70;99.90;;;;;;4751599;30;20067;-83
2021/10/16 07:01:46;;;;;;;16.92;9.70;;;7.70;99.90;;;;;;4750901;30;20052;-83
2021/10/16 07:04:17;;;;;;;15.77;10.10;;;7.60;99.90;;;;;;4760636;30;20060;-84
2021/10/16 07:06:49;;;;;;;19.08;10.02;;;7.70;99.90;;;;;;4773912;30;20048;-84
2021/10/16 07:09:23;;;;;;;13.40;10.13;;;7.70;99.90;;;;;;4768950;30;20058;-84
2021/10/16 07:11:51;;;;;;;17.00;9.82;;;7.80;99.90;;;;;;4768772;30;20501;-84
2021/10/16 07:14:19;;;;;;;18.35;11.27;;;7.80;99.90;;;;;;4768425;30;20526;-84
2021/10/16 07:16:49;;;;;;;18.02;11.10;;;7.80;99.90;;;;;;4768664;30;20060;-84
2021/10/16 07:19:16;;;;;;;11.38;9.82;;;7.80;99.90;;;;;;4769269;30;20052;-83
2021/10/16 07:21:44;;;;;;;12.63;9.27;;;7.90;99.90;;;;;;4769851;30;20054;-84
2021/10/16 07:24:12;;;;;;;14.85;11.27;;;8.20;99.90;;;;;;4754269;30;20469;-84
2021/10/16 07:26:40;;;;;;;13.85;9.88;;;8.50;99.90;;;;;;4760898;30;20052;-84
2021/10/16 07:29:08;;;;;;;16.38;11.30;;;8.70;99.90;;;;;;4753283;30;20047;-84
2021/10/16 07:31:35;;;;;;;23.15;13.60;;;8.80;99.90;;;;;;4768789;30;20047;-84
2021/10/16 07:34:03;;;;;;;18.65;12.02;;;9.00;99.90;;;;;;4768737;30;20512;-84
2021/10/16 07:36:34;;;;;;;16.63;12.57;;;9.00;99.90;;;;;;4768854;30;20047;-84
2021/10/16 07:39:04;;;;;;;19.95;11.43;;;8.90;99.90;;;;;;4767828;30;20063;-84
2021/10/16 07:41:33;;;;;;;17.67;10.93;;;9.00;99.90;;;;;;4753550;30;20415;-84
2021/10/16 07:44:03;;;;;;;15.23;9.13;;;9.00;99.90;;;;;;4768334;30;20051;-84
2021/10/16 07:46:31;;;;;;;16.75;10.35;;;9.20;99.90;;;;;;4736062;30;20045;-84
2021/10/16 07:48:58;;;;;;;16.05;9.32;;;9.40;99.90;;;;;;4752248;30;20060;-85
2021/10/16 07:51:26;;;;;;;18.17;10.52;;;9.60;99.90;;;;;;4762021;30;20058;-84
2021/10/16 07:53:54;;;;;;;15.65;10.05;;;9.70;99.90;;;;;;4750106;30;20407;-84
2021/10/16 07:56:22;;;;;;;15.60;9.55;;;9.80;99.90;;;;;;4758912;30;20059;-84
2021/10/16 07:58:50;;;;;;;14.75;9.73;;;9.80;99.90;;;;;;4767447;30;20051;-84
2021/10/16 08:01:17;;;;;;;13.52;8.40;;;9.70;99.90;;;;;;4768133;30;20059;-84
2021/10/16 08:03:45;;;;;;;15.50;9.43;;;9.50;99.90;;;;;;4767949;30;20052;-84
2021/10/16 08:06:13;;;;;;;18.55;11.20;;;9.50;99.90;;;;;;4768796;30;20059;-84
2021/10/16 08:08:41;;;;;;;13.93;9.18;;;9.50;99.90;;;;;;4752897;30;20151;-85
2021/10/16 08:11:21;;;;;;;14.10;9.82;;;9.60;99.90;;;;;;4753452;30;20059;-84
2021/10/16 08:13:49;;;;;;;12.50;9.30;;;9.80;99.90;;;;;;4764164;30;20059;-84
2021/10/16 08:16:17;;;;;;;12.38;8.85;;;9.80;99.90;;;;;;4753677;30;20064;-84
2021/10/16 08:18:48;;;;;;;17.90;11.02;;;9.90;99.90;;;;;;4769120;30;20044;-84
2021/10/16 08:21:15;;;;;;;13.48;8.93;;;10.00;99.90;;;;;;4769189;30;20059;-84
2021/10/16 08:23:43;;;;;;;17.83;10.15;;;10.20;99.90;;;;;;4754336;30;20052;-84
2021/10/16 08:26:11;;;;;;;13.77;10.38;;;10.40;99.90;;;;;;4753249;30;20063;-84
2021/10/16 08:28:39;;;;;;;16.65;11.15;;;10.50;99.90;;;;;;4768500;30;20067;-84
2021/10/16 08:31:06;;;;;;;18.08;10.20;;;10.60;99.90;;;;;;4767736;30;20055;-84
2021/10/16 08:33:37;;;;;;;16.83;10.55;;;10.80;99.90;;;;;;4768637;30;20052;-84
2021/10/16 08:36:05;;;;;;;16.95;10.27;;;10.90;99.90;;;;;;4765212;30;20056;-84
2021/10/16 08:38:33;;;;;;;19.70;11.88;;;11.10;99.90;;;;;;4734414;30;20503;-84
2021/10/16 08:41:01;;;;;;;16.85;10.00;;;11.20;99.90;;;;;;4735359;30;20052;-84
2021/10/16 08:43:29;;;;;;;10.57;7.30;;;11.30;99.90;;;;;;4758052;30;20051;-84
2021/10/16 08:46:01;;;;;;;13.80;9.23;;;11.30;99.90;;;;;;4767242;30;20060;-84
2021/10/16 08:48:30;;;;;;;10.68;8.23;;;11.30;99.90;;;;;;4767891;30;20064;-84
2021/10/16 08:50:58;;;;;;;14.68;9.38;;;11.30;99.90;;;;;;4768306;30;20052;-84
2021/10/16 08:53:26;;;;;;;12.82;8.38;;;11.20;99.90;;;;;;4748778;30;20411;-84
2021/10/16 08:55:54;;;;;;;16.38;11.15;;;11.30;99.90;;;;;;4751464;30;20069;-84
2021/10/16 08:58:22;;;;;;;21.35;11.20;;;11.40;99.90;;;;;;4749912;30;20044;-84
2021/10/16 09:00:52;;;;;;;18.02;11.43;;;11.40;99.90;;;;;;4734477;30;20083;-84
2021/10/16 09:03:35;;;;;;;15.63;12.95;;;11.40;99.90;;;;;;4757325;30;20048;-85
2021/10/16 09:06:06;;;;;;;15.60;9.50;;;11.50;99.90;;;;;;4749420;30;20044;-84
2021/10/16 09:08:36;;;;;;;11.52;8.88;;;11.40;99.90;;;;;;4749476;30;20052;-84
2021/10/16 09:11:11;;;;;;;13.90;10.50;;;11.40;99.90;;;;;;4734529;30;20051;-84
2021/10/16 09:13:51;;;;;;;13.43;8.85;;;11.40;99.90;;;;;;4723846;30;20063;-84
2021/10/16 09:16:26;;;;;;;21.90;11.07;;;11.50;99.90;;;;;;4749650;30;20682;-84
2021/10/16 09:19:08;;;;;;;12.57;8.18;;;11.60;99.90;;;;;;4749862;30;20415;-84
2021/10/16 09:21:38;;;;;;;11.52;7.95;;;11.60;99.90;;;;;;4747023;30;20064;-84
2021/10/16 09:24:13;;;;;;;14.45;9.30;;;11.40;99.90;;;;;;4748881;30;20063;-85
2021/10/16 09:26:43;;;;;;;15.45;9.50;;;11.30;99.90;;;;;;4748915;30;20088;-84
2021/10/16 09:29:14;;;;;;;13.27;8.80;;;11.30;99.90;;;;;;4747273;30;20044;-84
2021/10/16 09:31:46;;;;;;;16.27;9.35;;;11.40;99.90;;;;;;4748323;30;20077;-84
2021/10/16 09:34:22;;;;;;;14.90;10.38;;;11.60;99.90;;;;;;4747472;30;20060;-84
2021/10/16 09:36:50;;;;;;;17.92;9.35;;;11.90;99.90;;;;;;4747507;30;20072;-84
2021/10/16 09:39:19;;;;;;;12.75;10.00;;;12.10;99.90;;;;;;4748916;30;20522;-84
2021/10/16 09:41:47;;;;;;;15.98;10.07;;;12.10;99.90;;;;;;4732136;30;20052;-84
2021/10/16 09:44:29;;;;;;;14.50;9.95;;;12.30;99.90;;;;;;4747471;30;20417;-83
2021/10/16 09:47:17;;;;;;;13.25;9.48;;;12.50;99.90;;;;;;4748595;30;20499;-83
2021/10/16 09:49:53;;;;;;;23.92;12.80;;;12.70;99.90;;;;;;4747966;30;20557;-83
2021/10/16 09:52:21;;;;;;;12.98;8.18;;;12.90;99.90;;;;;;4747447;30;20064;-83
2021/10/16 09:55:19;;;;;;;16.25;8.48;;;13.00;99.90;;;;;;4745719;30;20052;-86
2021/10/16 09:57:56;;;;;;;10.63;9.52;;;13.10;99.90;;;;;;4741626;30;20697;-86
2021/10/16 10:00:36;;;;;;;13.25;10.48;;;13.30;99.90;;;;;;4747005;30;20127;-86
2021/10/16 10:03:17;;;;;;;9.10;7.82;;;13.50;99.90;;;;;;4747042;30;20447;-88
2021/10/16 10:06:03;;;;;;;9.98;8.85;;;13.60;99.90;;;;;;4750393;30;20055;-86
2021/10/16 10:08:36;;;;;;;13.80;8.60;;;13.70;99.90;;;;;;4735187;30;20058;-85
2021/10/16 10:11:07;;;;;;;12.15;9.35;;;13.50;99.90;;;;;;4763910;30;20048;-86
2021/10/16 10:13:37;;;;;;;14.82;7.55;;;13.40;99.90;;;;;;4745183;30;20326;-83
2021/10/16 10:16:05;;;;;;;9.75;7.18;;;13.60;99.90;;;;;;4762141;30;20048;-83
2021/10/16 10:21:38;;;;;;;13.68;8.68;;;13.80;99.90;;;;;;4747596;30;20411;-83
2021/10/16 10:24:08;;;;;;;9.70;6.63;;;13.90;99.90;;;;;;4732163;30;20056;-83
2021/10/16 10:26:40;;;;;;;9.98;8.18;;;14.00;99.90;;;;;;4747020;30;20056;-82
2021/10/16 10:29:17;;;;;;;13.30;10.00;;;14.20;99.90;;;;;;4759854;30;20040;-83
2021/10/16 10:31:45;;;;;;;10.88;7.45;;;14.30;99.90;;;;;;4748080;30;20053;-83
2021/10/16 10:34:26;;;;;;;11.60;9.32;;;14.20;99.90;;;;;;4746741;30;20056;-82
2021/10/16 10:37:06;;;;;;;12.93;8.02;;;14.00;99.90;;;;;;4746832;30;20506;-83
2021/10/16 10:39:34;;;;;;;8.90;7.75;;;13.70;99.90;;;;;;4747217;30;20060;-83
2021/10/16 10:42:14;;;;;;;17.00;9.55;;;13.70;99.90;;;;;;4745754;30;20056;-83
2021/10/16 10:44:54;;;;;;;10.98;8.32;;;13.60;99.90;;;;;;4760020;30;20048;-83
2021/10/16 10:47:25;;;;;;;10.02;7.47;;;13.60;99.90;;;;;;4748327;30;20051;-83
2021/10/16 10:49:54;;;;;;;11.05;6.85;;;13.10;99.90;;;;;;4760893;30;20045;-83
2021/10/16 10:52:24;;;;;;;11.48;7.93;;;12.90;99.90;;;;;;4747240;30;20060;-83
2021/10/16 10:55:08;;;;;;;10.63;7.75;;;12.90;99.90;;;;;;4745987;30;20044;-83
2021/10/16 10:57:59;;;;;;;11.20;7.15;;;13.10;99.90;;;;;;4760452;30;20052;-83
2021/10/16 11:00:34;;;;;;;16.02;8.43;;;12.60;99.90;;;;;;4747329;30;20056;-83
2021/10/16 11:03:28;;;;;;;14.07;7.03;;;12.30;99.90;;;;;;4749772;30;20419;-83
2021/10/16 11:06:17;;;;;;;11.80;7.35;;;12.20;99.90;;;;;;4741055;30;20044;-83
2021/10/16 11:08:48;;;;;;;12.68;9.02;;;12.00;99.90;;;;;;4749579;30;20403;-83
2021/10/16 11:11:17;;;;;;;15.43;7.72;;;12.10;99.90;;;;;;4735145;30;20052;-83
2021/10/16 11:13:44;;;;;;;8.93;6.88;;;12.00;99.90;;;;;;4749037;30;20052;-83
2021/10/16 11:16:12;;;;;;;9.35;6.88;;;11.90;99.90;;;;;;4735375;30;20075;-83
2021/10/16 11:18:40;;;;;;;10.55;7.35;;;11.90;99.90;;;;;;4734931;30;20527;-82
2021/10/16 11:21:12;;;;;;;11.82;8.20;;;11.80;99.90;;;;;;4750447;30;20064;-83
2021/10/16 11:23:41;;;;;;;7.53;5.68;;;11.80;99.90;;;;;;4751114;30;20051;-84
2021/10/16 11:26:11;;;;;;;7.05;6.10;;;11.70;99.90;;;;;;4764957;30;20047;-83
2021/10/16 11:28:42;;;;;;;9.73;6.72;;;11.70;99.90;;;;;;4736364;30;20064;-83
2021/10/16 11:31:10;;;;;;;12.15;7.28;;;11.70;99.90;;;;;;4752564;30;20055;-83
2021/10/16 11:33:39;;;;;;;10.48;7.90;;;11.60;99.90;;;;;;4767161;30;20418;-83
2021/10/16 11:36:09;;;;;;;11.55;7.25;;;11.70;99.90;;;;;;4767837;30;20059;-82
2021/10/16 11:38:39;;;;;;;9.20;7.93;;;11.60;99.90;;;;;;4751130;30;20051;-83
2021/10/16 11:41:10;;;;;;;8.57;6.32;;;11.60;99.90;;;;;;4737604;30;20043;-83
2021/10/16 11:43:41;;;;;;;10.57;7.93;;;11.60;99.90;;;;;;4766143;30;20601;-83
2021/10/16 11:46:16;;;;;;;;;;;11.60;99.90;;;;;;4767865;30;20048;-83
2021/10/16 11:48:44;;;;;;;17.27;7.10;;;11.70;99.90;;;;;;4766091;30;19929;-82
2021/10/16 11:51:12;;;;;;;10.43;8.52;;;11.70;99.90;;;;;;4767858;30;20052;-83
2021/10/16 11:53:44;;;;;;;9.80;6.47;;;11.80;99.90;;;;;;4766500;30;20052;-82
2021/10/16 11:56:14;;;;;;;10.15;6.30;;;11.90;99.90;;;;;;4752496;30;20067;-82
2021/10/16 11:58:43;;;;;;;9.35;6.57;;;12.40;99.90;;;;;;4750106;30;20052;-82
2021/10/16 12:01:11;;;;;;;9.40;6.65;;;12.70;99.90;;;;;;4767403;30;20048;-83
2021/10/16 12:03:42;;;;;;;9.40;7.82;;;12.90;99.90;;;;;;4768107;30;20059;-83
2021/10/16 12:06:18;;;;;;;8.45;7.32;;;12.90;99.90;;;;;;4767981;30;20064;-83
2021/10/16 12:08:51;;;;;;;13.10;6.43;;;13.00;99.90;;;;;;4767749;30;20426;-82
2021/10/16 12:11:20;;;;;;;9.00;6.30;;;13.10;99.90;;;;;;4766155;30;20052;-82
2021/10/16 12:13:58;;;;;;;12.25;7.68;;;13.10;99.90;;;;;;4762312;30;20055;-82
2021/10/16 12:16:37;;;;;;;17.13;8.93;;;13.10;99.90;;;;;;4748882;30;20068;-83
2021/10/16 12:19:14;;;;;;;8.05;5.90;;;13.20;99.90;;;;;;4748069;30;20503;-82
2021/10/16 12:21:45;;;;;;;5.95;5.20;;;13.00;99.90;;;;;;4749513;30;20060;-83
2021/10/16 12:24:30;;;;;;;7.93;6.55;;;13.00;99.90;;;;;;4750489;30;20078;-82
2021/10/16 12:27:09;;;;;;;11.43;7.07;;;13.20;99.90;;;;;;4749593;30;20067;-81
2021/10/16 12:29:39;;;;;;;6.80;5.28;;;13.10;99.90;;;;;;4732528;30;20056;-82
2021/10/16 12:32:09;;;;;;;7.05;6.35;;;13.00;99.90;;;;;;4763154;30;20067;-82
2021/10/16 12:34:39;;;;;;;8.52;5.80;;;13.10;99.90;;;;;;4748282;30;20048;-82
2021/10/16 12:37:11;;;;;;;6.82;5.05;;;13.40;99.90;;;;;;4748051;30;20056;-82
2021/10/16 12:39:41;;;;;;;5.03;4.63;;;13.40;99.90;;;;;;4748419;30;20049;-81
2021/10/16 12:42:26;;;;;;;5.90;4.75;;;13.30;99.90;;;;;;4762175;30;20136;-83
2021/10/16 12:45:06;;;;;;;10.75;5.05;;;13.10;99.90;;;;;;4747082;30;20067;-82
2021/10/16 12:47:34;;;;;;;7.07;4.32;;;13.30;99.90;;;;;;4749337;30;20060;-82
2021/10/16 12:50:05;;;;;;;5.63;4.82;;;13.50;99.90;;;;;;4749178;30;20063;-83
2021/10/16 12:52:40;;;;;;;11.25;6.80;;;13.70;99.90;;;;;;4763389;30;20056;-84
2021/10/16 12:55:11;;;;;;;5.43;4.50;;;13.70;99.90;;;;;;4765161;30;20132;-82
2021/10/16 12:58:05;;;;;;;4.35;3.92;;;13.70;99.90;;;;;;4734851;30;20056;-82
2021/10/16 13:00:40;;;;;;;7.85;4.28;;;13.70;99.90;;;;;;4767024;30;20055;-82
2021/10/16 13:03:11;;;;;;;7.20;4.90;;;13.60;99.90;;;;;;4750503;30;20506;-82
2021/10/16 13:05:39;;;;;;;5.22;4.72;;;13.50;99.90;;;;;;4766804;30;20067;-82
2021/10/16 13:08:09;;;;;;;6.78;4.50;;;13.70;99.90;;;;;;4784630;30;20398;-82
2021/10/16 13:10:37;;;;;;;6.55;5.57;;;13.70;99.90;;;;;;4753399;30;20051;-82
2021/10/16 13:13:06;;;;;;;5.13;4.18;;;13.40;99.90;;;;;;4782780;30;20058;-81
2021/10/16 13:15:36;;;;;;;8.48;4.88;;;13.50;99.90;;;;;;4785029;29;20051;-82
2021/10/16 13:18:05;;;;;;;10.57;5.63;;;13.70;99.90;;;;;;4768576;30;20059;-83
2021/10/16 13:20:33;;;;;;;6.40;5.65;;;13.80;99.90;;;;;;4768393;30;20706;-82
2021/10/16 13:23:02;;;;;;;6.20;5.57;;;13.90;99.90;;;;;;4783233;29;20048;-82
2021/10/16 13:25:30;;;;;;;6.25;4.60;;;13.90;99.90;;;;;;4765187;30;20052;-82